Time;durP1;ratioP1;P1;durP2;ratioP2;P2;SDS_P1;SDS_P2;PMS_P1;PMS_P2;Temp;Humidity;BMP_temperature;BMP_pressure;BME280_temperature;BME280_humidity;BME280_pressure;Samples;Min_cycle;Max_cycle;Signal;HPM_P1;HPM_P2
2023/06/29 00:01:03;;;;;;;24.80;11.82;;;18.90;99.90;;;;;;4983554;28;20080;-77
2023/06/29 00:03:32;;;;;;;26.40;11.57;;;18.90;99.90;;;;;;4983181;28;20042;-77
2023/06/29 00:05:59;;;;;;;24.45;12.13;;;18.90;99.90;;;;;;4983265;28;20046;-77
2023/06/29 00:08:26;;;;;;;27.63;12.73;;;18.80;99.90;;;;;;4984803;28;20038;-77
2023/06/29 00:10:52;;;;;;;25.80;12.45;;;18.90;99.90;;;;;;4984193;28;20046;-77
2023/06/29 00:13:22;;;;;;;20.13;11.05;;;18.90;99.90;;;;;;4989720;28;20436;-77
2023/06/29 00:15:50;;;;;;;22.50;11.32;;;18.90;99.90;;;;;;4989323;28;20093;-77
2023/06/29 00:18:18;;;;;;;23.77;12.77;;;18.90;99.90;;;;;;4989285;28;20078;-77
2023/06/29 00:20:44;;;;;;;27.58;11.63;;;18.90;99.90;;;;;;4989864;28;20413;-77
2023/06/29 00:23:10;;;;;;;24.42;11.48;;;18.90;99.90;;;;;;4990404;28;20069;-77
2023/06/29 00:25:38;;;;;;;25.42;12.45;;;18.80;99.90;;;;;;4988419;28;20046;-76
2023/06/29 00:28:04;;;;;;;24.58;13.30;;;18.90;99.90;;;;;;4990283;28;20038;-77
2023/06/29 00:30:30;;;;;;;22.58;10.52;;;18.90;99.90;;;;;;4990144;28;20053;-78
2023/06/29 00:32:56;;;;;;;25.10;11.90;;;18.80;99.90;;;;;;4991014;28;20050;-77
2023/06/29 00:35:22;;;;;;;19.42;10.88;;;18.80;99.90;;;;;;4990574;28;20077;-77
2023/06/29 00:37:48;;;;;;;24.75;12.15;;;18.80;99.90;;;;;;4972903;28;20046;-77
2023/06/29 00:40:14;;;;;;;21.77;11.60;;;18.80;99.90;;;;;;4989519;28;20049;-77
2023/06/29 00:42:39;;;;;;;26.35;11.18;;;18.80;99.90;;;;;;4989506;28;20495;-77
2023/06/29 00:45:06;;;;;;;21.15;11.07;;;18.80;99.90;;;;;;4989961;28;20049;-77
2023/06/29 00:47:34;;;;;;;25.65;11.13;;;18.90;99.90;;;;;;4990796;28;20138;-77
2023/06/29 00:50:01;;;;;;;20.35;11.75;;;18.80;99.90;;;;;;4990303;28;20563;-77
2023/06/29 00:52:27;;;;;;;23.38;11.00;;;18.80;99.90;;;;;;4989720;28;20046;-76
2023/06/29 00:54:55;;;;;;;23.67;11.55;;;18.80;99.90;;;;;;4988427;28;20038;-77
2023/06/29 00:57:21;;;;;;;24.45;12.20;;;18.80;99.90;;;;;;4990440;28;20041;-76
2023/06/29 00:59:46;;;;;;;20.80;10.65;;;18.90;99.90;;;;;;4989244;28;20046;-77
2023/06/29 01:02:14;;;;;;;22.30;11.82;;;18.80;99.90;;;;;;4988495;28;20062;-77
2023/06/29 01:04:40;;;;;;;23.45;11.70;;;18.80;99.90;;;;;;4989127;28;20042;-77
2023/06/29 01:09:50;;;;;;;25.30;11.65;;;18.80;99.90;;;;;;5026267;28;20045;-77
2023/06/29 01:12:17;;;;;;;22.70;11.05;;;18.80;99.90;;;;;;5029783;28;20050;-77
2023/06/29 01:14:44;;;;;;;20.73;10.00;;;18.80;99.90;;;;;;5011913;28;20095;-77
2023/06/29 01:17:17;;;;;;;23.45;10.48;;;18.80;99.90;;;;;;5029783;28;20049;-77
2023/06/29 01:19:47;;;;;;;22.70;11.23;;;18.80;99.90;;;;;;5029837;28;20049;-77
2023/06/29 01:22:21;;;;;;;23.92;11.45;;;18.70;99.90;;;;;;5009714;28;20049;-77
2023/06/29 01:24:47;;;;;;;22.15;11.23;;;18.80;99.90;;;;;;5005985;28;20046;-77
2023/06/29 01:27:14;;;;;;;22.65;10.80;;;18.80;99.90;;;;;;4989055;28;20069;-77
2023/06/29 01:29:40;;;;;;;24.17;11.05;;;18.80;99.90;;;;;;5007012;28;20049;-77
2023/06/29 01:32:07;;;;;;;22.13;10.15;;;18.80;99.90;;;;;;4989167;28;20056;-77
2023/06/29 01:34:35;;;;;;;25.40;11.88;;;18.80;99.90;;;;;;5026170;28;20041;-78
2023/06/29 01:37:09;;;;;;;23.88;11.73;;;18.80;99.90;;;;;;5008504;28;20562;-78
2023/06/29 01:39:46;;;;;;;24.10;11.57;;;18.80;99.90;;;;;;4991723;28;20050;-77
2023/06/29 01:42:12;;;;;;;28.23;12.32;;;18.80;99.90;;;;;;5008978;28;20042;-77
2023/06/29 01:44:38;;;;;;;25.80;11.50;;;18.80;99.90;;;;;;5006726;28;20042;-77
2023/06/29 01:47:06;;;;;;;19.85;10.73;;;18.80;99.90;;;;;;4988637;28;20075;-77
2023/06/29 01:49:33;;;;;;;22.98;11.52;;;18.80;99.90;;;;;;4989117;28;20143;-78
2023/06/29 01:51:58;;;;;;;25.27;11.95;;;18.80;99.90;;;;;;5021267;28;20076;-77
2023/06/29 01:54:24;;;;;;;27.55;12.82;;;18.80;99.90;;;;;;4990963;28;20073;-77
2023/06/29 01:56:49;;;;;;;24.42;12.18;;;18.80;99.90;;;;;;5008771;28;20487;-77
2023/06/29 01:59:15;;;;;;;32.65;12.88;;;18.80;99.90;;;;;;5025931;28;20132;-77
2023/06/29 02:01:41;;;;;;;24.48;12.63;;;18.80;99.90;;;;;;5024352;28;20048;-77
2023/06/29 02:04:06;;;;;;;20.90;10.85;;;18.80;99.90;;;;;;5007879;28;20084;-77
2023/06/29 02:06:32;;;;;;;25.88;11.95;;;18.80;99.90;;;;;;5025949;28;20697;-78
2023/06/29 02:08:57;;;;;;;29.35;12.63;;;18.80;99.90;;;;;;5010227;28;20104;-77
2023/06/29 02:11:23;;;;;;;29.95;12.80;;;18.80;99.90;;;;;;5018670;28;20143;-77
2023/06/29 02:13:48;;;;;;;33.47;13.80;;;18.80;99.90;;;;;;5008463;28;20128;-77
2023/06/29 02:16:14;;;;;;;27.55;12.05;;;18.80;99.90;;;;;;5007839;28;20099;-77
2023/06/29 02:18:40;;;;;;;29.65;13.57;;;18.80;99.90;;;;;;5007965;28;20068;-78
2023/06/29 02:21:05;;;;;;;27.92;11.43;;;18.80;99.90;;;;;;5015215;28;20048;-78
2023/06/29 02:23:31;;;;;;;25.17;12.48;;;18.80;99.90;;;;;;4987818;28;20044;-78
2023/06/29 02:25:57;;;;;;;28.60;12.10;;;18.80;99.90;;;;;;4988572;28;20063;-77
2023/06/29 02:28:22;;;;;;;32.10;13.77;;;18.80;99.90;;;;;;4987904;28;20048;-77
2023/06/29 02:30:48;;;;;;;25.80;11.68;;;18.80;99.90;;;;;;4994842;28;20041;-77
2023/06/29 02:33:13;;;;;;;29.13;14.20;;;18.80;99.90;;;;;;5007608;28;20547;-77
2023/06/29 02:35:39;;;;;;;31.88;12.93;;;18.80;99.90;;;;;;5024678;28;20053;-78
2023/06/29 02:38:05;;;;;;;30.15;12.48;;;18.80;99.90;;;;;;5007521;28;20462;-78
2023/06/29 02:40:30;;;;;;;31.52;13.55;;;18.80;99.90;;;;;;5019790;28;20037;-78
2023/06/29 02:42:56;;;;;;;29.55;13.13;;;18.80;99.90;;;;;;5005800;28;20050;-77
2023/06/29 02:45:22;;;;;;;28.92;12.88;;;18.80;99.90;;;;;;4971631;28;20046;-77
2023/06/29 02:47:47;;;;;;;28.23;12.73;;;18.80;99.90;;;;;;5005291;28;20496;-77
2023/06/29 02:50:13;;;;;;;22.30;11.73;;;18.80;99.90;;;;;;5006377;28;20050;-77
2023/06/29 02:52:38;;;;;;;30.73;12.38;;;18.80;99.90;;;;;;5007554;28;20049;-77
2023/06/29 02:55:05;;;;;;;21.30;10.75;;;18.80;99.90;;;;;;5024021;28;20045;-77
2023/06/29 02:57:30;;;;;;;24.52;10.65;;;18.80;99.90;;;;;;5007163;28;20046;-78
2023/06/29 02:59:56;;;;;;;21.65;10.52;;;18.80;99.90;;;;;;5007281;28;20049;-77
2023/06/29 03:02:21;;;;;;;24.23;11.27;;;18.80;99.90;;;;;;5023410;28;20052;-77
2023/06/29 03:04:47;;;;;;;26.70;11.30;;;18.80;99.90;;;;;;5007192;28;20510;-77
2023/06/29 03:07:13;;;;;;;23.27;10.73;;;18.80;99.90;;;;;;5023678;28;20045;-78
2023/06/29 03:09:38;;;;;;;20.48;9.23;;;18.80;99.90;;;;;;5004031;28;20050;-78
2023/06/29 03:12:04;;;;;;;28.00;11.48;;;18.80;99.90;;;;;;5020185;28;20045;-77
2023/06/29 03:14:30;;;;;;;21.50;8.30;;;18.80;99.90;;;;;;4990950;28;20045;-78
2023/06/29 03:16:55;;;;;;;22.02;9.07;;;18.80;99.90;;;;;;5025260;28;20049;-77
2023/06/29 03:19:21;;;;;;;21.52;9.10;;;18.80;99.90;;;;;;5007235;28;20439;-77
2023/06/29 03:21:47;;;;;;;20.00;9.68;;;18.80;99.90;;;;;;5011826;28;20050;-77
2023/06/29 03:24:12;;;;;;;24.45;9.88;;;18.80;99.90;;;;;;4986077;28;20109;-77
2023/06/29 03:26:38;;;;;;;26.58;10.40;;;18.80;99.90;;;;;;5004689;28;20049;-77
2023/06/29 03:29:03;;;;;;;22.42;10.13;;;18.80;99.90;;;;;;5004283;28;20396;-77
2023/06/29 03:31:29;;;;;;;21.00;8.65;;;18.80;99.90;;;;;;4996195;28;20046;-77
2023/06/29 03:33:57;;;;;;;20.20;9.52;;;18.80;99.90;;;;;;5006929;28;20447;-78
2023/06/29 03:36:23;;;;;;;23.13;11.73;;;18.80;99.90;;;;;;5005933;28;20057;-77
2023/06/29 03:38:49;;;;;;;21.35;9.68;;;18.80;99.90;;;;;;5023545;28;20443;-77
2023/06/29 03:41:14;;;;;;;22.55;9.55;;;18.80;99.90;;;;;;4999817;28;20507;-77
2023/06/29 03:43:40;;;;;;;22.15;10.00;;;18.80;99.90;;;;;;5004542;28;20038;-77
2023/06/29 03:46:05;;;;;;;21.63;9.15;;;18.80;99.90;;;;;;5003424;28;20514;-78
2023/06/29 03:48:31;;;;;;;22.38;9.45;;;18.80;99.90;;;;;;4986820;28;20521;-78
2023/06/29 03:50:57;;;;;;;20.15;9.30;;;18.80;99.90;;;;;;5008475;28;20101;-77
2023/06/29 03:53:22;;;;;;;18.60;8.57;;;18.80;99.90;;;;;;5004771;28;20052;-77
2023/06/29 03:55:48;;;;;;;20.17;8.82;;;18.80;99.90;;;;;;5024152;28;20041;-77
2023/06/29 03:58:15;;;;;;;19.77;8.50;;;18.80;99.90;;;;;;5023688;28;20040;-77
2023/06/29 04:00:41;;;;;;;21.75;8.95;;;18.80;99.90;;;;;;5022227;28;20111;-77
2023/06/29 04:03:06;;;;;;;17.60;9.50;;;18.80;99.90;;;;;;5022544;28;20045;-77
2023/06/29 04:05:32;;;;;;;19.40;9.38;;;18.80;99.90;;;;;;5006096;28;20491;-77
2023/06/29 04:08:03;;;;;;;22.02;10.40;;;18.80;99.90;;;;;;5002344;28;20103;-78
2023/06/29 04:10:29;;;;;;;21.42;9.38;;;18.80;99.90;;;;;;5023741;28;20053;-79
2023/06/29 04:12:55;;;;;;;20.55;9.75;;;18.80;99.90;;;;;;5006098;28;20045;-80
2023/06/29 04:15:21;;;;;;;27.52;8.85;;;18.80;99.90;;;;;;5005146;28;20049;-77
2023/06/29 04:17:47;;;;;;;23.08;9.07;;;18.80;99.90;;;;;;5005744;28;20061;-77
2023/06/29 04:20:12;;;;;;;19.17;9.10;;;18.80;99.90;;;;;;5023474;28;20045;-77
2023/06/29 04:22:38;;;;;;;20.30;9.80;;;18.80;99.90;;;;;;5006534;28;20037;-77
2023/06/29 04:25:05;;;;;;;20.40;10.10;;;18.80;99.90;;;;;;5002619;28;20046;-78
2023/06/29 04:27:33;;;;;;;23.65;9.88;;;18.80;99.90;;;;;;4986645;28;20500;-78
2023/06/29 04:29:59;;;;;;;17.17;9.18;;;18.90;99.90;;;;;;5004273;28;20042;-77
2023/06/29 04:32:24;;;;;;;19.17;8.52;;;18.80;99.90;;;;;;5019383;28;20053;-77
2023/06/29 04:34:50;;;;;;;20.85;9.73;;;18.90;99.90;;;;;;5023837;28;20045;-77
2023/06/29 04:37:15;;;;;;;18.25;9.27;;;18.90;99.90;;;;;;5005501;28;20125;-77
2023/06/29 04:39:41;;;;;;;22.50;9.82;;;18.90;99.90;;;;;;5005096;28;20041;-77
2023/06/29 04:42:12;;;;;;;23.95;9.32;;;18.90;99.90;;;;;;5011534;28;20187;-77
2023/06/29 04:44:39;;;;;;;21.98;9.48;;;18.90;99.90;;;;;;5023574;28;20050;-78
2023/06/29 04:47:05;;;;;;;26.70;10.15;;;18.90;99.90;;;;;;5022875;28;20042;-79
2023/06/29 04:49:31;;;;;;;21.42;9.48;;;18.80;99.90;;;;;;5023453;28;20037;-78
2023/06/29 04:52:00;;;;;;;22.05;9.38;;;18.80;99.90;;;;;;5023365;28;20089;-78
2023/06/29 04:54:29;;;;;;;24.05;10.30;;;18.90;99.90;;;;;;5004392;28;20042;-78
2023/06/29 04:56:56;;;;;;;20.17;9.70;;;18.80;99.90;;;;;;4987082;28;20056;-78
2023/06/29 04:59:23;;;;;;;25.02;10.57;;;18.90;99.90;;;;;;5006580;28;20049;-78
2023/06/29 05:01:49;;;;;;;25.42;9.85;;;18.80;99.90;;;;;;4999071;28;20038;-78
2023/06/29 05:04:15;;;;;;;20.08;10.50;;;18.80;99.90;;;;;;5015932;28;20041;-78
2023/06/29 05:06:41;;;;;;;24.00;11.10;;;18.80;99.90;;;;;;5007336;28;20065;-78
2023/06/29 05:09:06;;;;;;;22.85;9.77;;;18.80;99.90;;;;;;5005603;28;20488;-79
2023/06/29 05:11:34;;;;;;;19.67;10.05;;;18.80;99.90;;;;;;4989416;28;20466;-78
2023/06/29 05:14:00;;;;;;;23.90;10.52;;;18.80;99.90;;;;;;5005279;28;20045;-78
2023/06/29 05:16:26;;;;;;;22.58;10.57;;;18.80;99.90;;;;;;5009145;28;20327;-79
2023/06/29 05:18:51;;;;;;;24.10;10.82;;;18.80;99.90;;;;;;4991390;28;20041;-79
2023/06/29 05:21:17;;;;;;;25.80;10.15;;;18.80;99.90;;;;;;5012564;28;20087;-79
2023/06/29 05:23:43;;;;;;;27.10;9.90;;;18.80;99.90;;;;;;5019672;28;20090;-79
2023/06/29 05:26:08;;;;;;;25.83;10.40;;;18.80;99.90;;;;;;4984672;28;20527;-79
2023/06/29 05:28:34;;;;;;;24.48;9.48;;;18.80;99.90;;;;;;5019281;28;20085;-79
2023/06/29 05:31:00;;;;;;;24.20;9.52;;;18.80;99.90;;;;;;5029943;28;20045;-79
2023/06/29 05:33:25;;;;;;;22.77;9.98;;;18.80;99.90;;;;;;5011547;28;20689;-79
2023/06/29 05:35:51;;;;;;;25.08;11.80;;;18.80;99.90;;;;;;4987272;28;20110;-79
2023/06/29 05:38:17;;;;;;;22.65;9.63;;;18.80;99.90;;;;;;5000256;28;20405;-78
2023/06/29 05:40:42;;;;;;;21.92;10.48;;;18.80;99.90;;;;;;5011357;28;20124;-78
2023/06/29 05:43:08;;;;;;;24.27;10.60;;;18.80;99.90;;;;;;4997898;28;20081;-78
2023/06/29 05:45:33;;;;;;;23.50;9.15;;;18.80;99.90;;;;;;5006548;28;20484;-78
2023/06/29 05:47:59;;;;;;;24.88;10.43;;;18.80;99.90;;;;;;4990345;28;20129;-78
2023/06/29 05:50:25;;;;;;;23.92;10.20;;;18.80;99.90;;;;;;5024918;28;20065;-79
2023/06/29 05:52:50;;;;;;;18.88;8.48;;;18.80;99.90;;;;;;5025052;28;20067;-78
2023/06/29 05:55:16;;;;;;;23.75;11.45;;;18.80;99.90;;;;;;5018686;28;20511;-78
2023/06/29 05:57:41;;;;;;;22.00;10.18;;;18.80;99.90;;;;;;5015291;28;20036;-78
2023/06/29 06:00:12;;;;;;;21.50;10.13;;;18.80;99.90;;;;;;5025146;28;20033;-78
2023/06/29 06:02:40;;;;;;;22.40;9.23;;;18.90;99.90;;;;;;5024135;28;20047;-78
2023/06/29 06:05:09;;;;;;;24.15;11.68;;;18.90;99.90;;;;;;5007571;28;20461;-78
2023/06/29 06:07:35;;;;;;;20.75;9.13;;;18.90;99.90;;;;;;5005885;28;20085;-78
2023/06/29 06:10:02;;;;;;;26.95;10.32;;;18.90;99.90;;;;;;4987108;28;20086;-78
2023/06/29 06:12:28;;;;;;;18.08;9.68;;;18.90;99.90;;;;;;5008654;28;20486;-78
2023/06/29 06:14:54;;;;;;;22.60;10.65;;;18.90;99.90;;;;;;5018223;28;20099;-78
2023/06/29 06:17:19;;;;;;;19.02;8.70;;;18.90;99.90;;;;;;5013817;28;20085;-78
2023/06/29 06:19:45;;;;;;;22.40;9.55;;;18.90;99.90;;;;;;5006934;28;20053;-78
2023/06/29 06:22:10;;;;;;;21.67;9.95;;;18.90;99.90;;;;;;5017500;28;20438;-79
2023/06/29 06:24:36;;;;;;;23.40;10.57;;;19.00;99.90;;;;;;5022127;28;20432;-78
2023/06/29 06:27:02;;;;;;;22.45;11.23;;;19.00;99.90;;;;;;5008056;28;20132;-78
2023/06/29 06:29:28;;;;;;;22.73;9.10;;;19.00;99.90;;;;;;5018314;28;20038;-79
2023/06/29 06:31:54;;;;;;;22.67;10.45;;;19.00;99.90;;;;;;4999667;28;20045;-77
2023/06/29 06:34:20;;;;;;;18.48;8.90;;;19.00;99.90;;;;;;5034641;28;20487;-77
2023/06/29 06:36:47;;;;;;;24.92;10.63;;;19.00;99.90;;;;;;5007209;28;20099;-77
2023/06/29 06:39:14;;;;;;;20.65;9.77;;;19.10;99.90;;;;;;5023153;28;20049;-77
2023/06/29 06:41:41;;;;;;;21.40;9.60;;;19.10;99.90;;;;;;5006377;28;20492;-77
2023/06/29 06:44:07;;;;;;;27.00;11.15;;;19.10;99.90;;;;;;5006040;28;20425;-77
2023/06/29 06:46:33;;;;;;;23.20;10.07;;;19.10;99.90;;;;;;5006339;28;20120;-78
2023/06/29 06:48:58;;;;;;;23.27;9.77;;;19.20;99.90;;;;;;4990443;28;20099;-77
2023/06/29 06:51:25;;;;;;;21.83;10.85;;;19.20;99.90;;;;;;5023585;28;20458;-77
2023/06/29 06:53:51;;;;;;;23.85;9.95;;;19.20;99.90;;;;;;5023178;28;20534;-77
2023/06/29 06:56:16;;;;;;;26.00;11.77;;;19.20;99.90;;;;;;5023658;28;20081;-78
2023/06/29 06:58:42;;;;;;;27.88;10.15;;;19.20;99.90;;;;;;5024016;28;20092;-77
2023/06/29 07:01:08;;;;;;;22.33;9.48;;;19.20;99.90;;;;;;5023697;28;20293;-78
2023/06/29 07:03:33;;;;;;;22.27;9.73;;;19.20;99.90;;;;;;5006425;28;20049;-78
2023/06/29 07:05:59;;;;;;;24.08;10.45;;;19.20;99.90;;;;;;5006096;28;20377;-78
2023/06/29 07:08:25;;;;;;;22.90;10.20;;;19.30;99.90;;;;;;5022921;28;20038;-78
2023/06/29 07:10:51;;;;;;;24.17;9.32;;;19.20;99.90;;;;;;5019658;28;20038;-78
2023/06/29 07:13:18;;;;;;;20.15;10.32;;;19.20;99.90;;;;;;5006047;28;20029;-78
2023/06/29 07:15:45;;;;;;;24.73;11.00;;;19.20;99.90;;;;;;4991484;28;20049;-79
2023/06/29 07:18:11;;;;;;;26.30;11.43;;;19.30;99.90;;;;;;5006342;28;20415;-76
2023/06/29 07:20:37;;;;;;;24.20;10.20;;;19.30;99.90;;;;;;5003942;28;20038;-76
2023/06/29 07:23:02;;;;;;;27.02;10.45;;;19.30;99.90;;;;;;4983514;28;20053;-75
2023/06/29 07:25:28;;;;;;;31.02;11.25;;;19.30;99.90;;;;;;5003982;28;20121;-76
2023/06/29 07:27:54;;;;;;;30.13;11.27;;;19.40;99.90;;;;;;4986213;28;20483;-75
2023/06/29 07:30:20;;;;;;;29.05;11.07;;;19.40;99.90;;;;;;4984488;28;20209;-73
2023/06/29 07:32:45;;;;;;;25.48;10.95;;;19.40;99.90;;;;;;5003453;28;20052;-74
2023/06/29 07:35:12;;;;;;;28.80;12.85;;;19.40;99.90;;;;;;4985521;28;20045;-73
2023/06/29 07:37:37;;;;;;;32.63;12.20;;;19.40;99.90;;;;;;5001970;28;20045;-74
2023/06/29 07:40:04;;;;;;;26.67;12.00;;;19.40;99.90;;;;;;4985443;28;20043;-74
2023/06/29 07:42:30;;;;;;;27.60;11.85;;;19.50;99.90;;;;;;5003331;28;20042;-74
2023/06/29 07:44:55;;;;;;;28.23;11.90;;;19.50;99.90;;;;;;4985846;28;20084;-74
2023/06/29 07:47:21;;;;;;;36.88;12.85;;;19.50;99.90;;;;;;4985459;28;20107;-74
2023/06/29 07:49:46;;;;;;;27.02;11.82;;;19.50;99.90;;;;;;5003090;28;20030;-75
2023/06/29 07:52:12;;;;;;;25.60;11.52;;;19.50;99.90;;;;;;4968723;28;20053;-75
2023/06/29 07:54:38;;;;;;;32.60;12.63;;;19.50;99.90;;;;;;5002463;28;20072;-75
2023/06/29 07:57:03;;;;;;;25.40;12.43;;;19.50;99.90;;;;;;4985209;28;20303;-75
2023/06/29 07:59:29;;;;;;;28.08;12.30;;;19.50;99.90;;;;;;5003067;28;20042;-75
2023/06/29 08:01:55;;;;;;;29.08;13.48;;;19.50;99.90;;;;;;4994861;28;20124;-75
2023/06/29 08:04:21;;;;;;;27.15;10.93;;;19.50;99.90;;;;;;5022113;28;20696;-75
2023/06/29 08:06:46;;;;;;;28.92;11.32;;;19.50;99.90;;;;;;5022851;28;20045;-75
2023/06/29 08:09:12;;;;;;;31.80;11.93;;;19.50;99.90;;;;;;5003746;28;20081;-75
2023/06/29 08:11:38;;;;;;;27.83;12.00;;;19.50;99.90;;;;;;5022192;28;20099;-75
2023/06/29 08:14:04;;;;;;;31.23;12.40;;;19.40;99.90;;;;;;5022294;28;20033;-75
2023/06/29 08:16:30;;;;;;;26.88;11.75;;;19.40;99.90;;;;;;5022655;28;20049;-75
2023/06/29 08:18:56;;;;;;;31.67;12.50;;;19.40;99.90;;;;;;5004846;28;20069;-75
2023/06/29 08:21:22;;;;;;;30.73;12.43;;;19.40;99.90;;;;;;5021918;28;20080;-75
2023/06/29 08:23:49;;;;;;;28.35;12.30;;;19.40;99.90;;;;;;5022073;28;20087;-75
2023/06/29 08:26:15;;;;;;;28.00;12.98;;;19.50;99.90;;;;;;5022323;28;20054;-75
2023/06/29 08:28:41;;;;;;;33.85;13.50;;;19.50;99.90;;;;;;5022289;28;20463;-75
2023/06/29 08:31:06;;;;;;;29.80;12.95;;;19.40;99.90;;;;;;5022155;28;20515;-75
2023/06/29 08:33:32;;;;;;;29.77;12.10;;;19.50;99.90;;;;;;5025591;28;20393;-75
2023/06/29 08:35:58;;;;;;;27.70;11.80;;;19.50;99.90;;;;;;5026804;28;20037;-75
2023/06/29 08:38:23;;;;;;;27.40;11.85;;;19.50;99.90;;;;;;5007482;28;20045;-75
2023/06/29 08:40:49;;;;;;;25.95;11.18;;;19.50;99.90;;;;;;5008439;28;20219;-75
2023/06/29 08:43:15;;;;;;;26.20;11.88;;;19.40;99.90;;;;;;5008211;28;20041;-75
2023/06/29 08:45:45;;;;;;;21.92;10.70;;;19.30;99.90;;;;;;5008556;28;20051;-75
2023/06/29 08:48:16;;;;;;;26.30;11.68;;;19.30;99.90;;;;;;5008298;28;20368;-75
2023/06/29 08:50:49;;;;;;;25.27;11.27;;;19.20;99.90;;;;;;5008894;28;20394;-75
2023/06/29 08:53:14;;;;;;;30.50;13.35;;;19.20;99.90;;;;;;5024688;28;20042;-75
2023/06/29 08:55:41;;;;;;;27.95;10.93;;;19.20;99.90;;;;;;5025981;28;20052;-75
2023/06/29 08:58:08;;;;;;;30.23;12.23;;;19.20;99.90;;;;;;5025617;28;20056;-75
2023/06/29 09:00:34;;;;;;;31.13;12.68;;;19.20;99.90;;;;;;5007863;28;20526;-75
2023/06/29 09:03:02;;;;;;;27.35;11.45;;;19.20;99.90;;;;;;5025569;28;20037;-75
2023/06/29 09:05:28;;;;;;;27.88;11.70;;;19.20;99.90;;;;;;5026132;28;20127;-75
2023/06/29 09:07:54;;;;;;;30.05;12.60;;;19.20;99.90;;;;;;5024359;28;20084;-75
2023/06/29 09:10:20;;;;;;;27.52;13.45;;;19.20;99.90;;;;;;5025351;28;20063;-75
2023/06/29 09:12:45;;;;;;;29.05;12.50;;;19.20;99.90;;;;;;5025578;28;20073;-75
2023/06/29 09:15:11;;;;;;;26.85;11.27;;;19.20;99.90;;;;;;5007587;28;20069;-75
2023/06/29 09:17:37;;;;;;;32.70;11.38;;;19.20;99.90;;;;;;5025727;28;20042;-75
2023/06/29 09:20:11;;;;;;;24.10;11.30;;;19.30;99.90;;;;;;5025486;28;20121;-75
2023/06/29 09:22:39;;;;;;;27.55;12.43;;;19.20;99.90;;;;;;4989871;28;20085;-75
2023/06/29 09:25:06;;;;;;;29.27;12.05;;;19.30;99.90;;;;;;5025368;28;20367;-75
2023/06/29 09:27:34;;;;;;;29.27;12.15;;;19.30;99.90;;;;;;5025485;28;20045;-74
2023/06/29 09:30:00;;;;;;;28.35;11.30;;;19.30;99.90;;;;;;5025722;28;20095;-75
2023/06/29 09:32:29;;;;;;;26.73;13.23;;;19.30;99.90;;;;;;5025611;28;20087;-75
2023/06/29 09:34:55;;;;;;;32.83;14.70;;;19.30;99.90;;;;;;5007683;28;20045;-75
2023/06/29 09:37:20;;;;;;;30.95;13.95;;;19.30;99.90;;;;;;5024020;28;20090;-75
2023/06/29 09:40:09;;;;;;;27.60;11.75;;;19.40;99.90;;;;;;4990828;28;20261;-75
2023/06/29 09:42:38;;;;;;;33.35;13.00;;;19.40;99.90;;;;;;5025471;28;20041;-75
2023/06/29 09:45:11;;;;;;;31.38;14.27;;;19.40;99.90;;;;;;5023586;28;20046;-75
2023/06/29 09:47:38;;;;;;;30.20;14.02;;;19.40;99.90;;;;;;5006911;28;20045;-75
2023/06/29 09:50:19;;;;;;;29.02;13.55;;;19.50;99.90;;;;;;5025075;28;20038;-75
2023/06/29 09:52:49;;;;;;;33.97;14.18;;;19.50;99.90;;;;;;5023610;28;20124;-74
2023/06/29 09:55:15;;;;;;;30.00;12.85;;;19.60;99.90;;;;;;5024507;28;20037;-75
2023/06/29 09:57:42;;;;;;;34.33;13.15;;;19.70;99.90;;;;;;5007282;28;20046;-75
2023/06/29 10:00:12;;;;;;;33.33;13.52;;;19.80;99.90;;;;;;5024039;28;20526;-75
2023/06/29 10:02:39;;;;;;;28.77;13.57;;;19.80;99.90;;;;;;5024539;28;20049;-75
2023/06/29 10:05:06;;;;;;;30.02;13.13;;;19.80;99.90;;;;;;5006555;28;20056;-75
2023/06/29 10:07:33;;;;;;;34.70;14.93;;;19.80;99.90;;;;;;5023277;28;20049;-75
2023/06/29 10:09:59;;;;;;;35.47;13.80;;;19.80;99.90;;;;;;5025109;28;20057;-75
2023/06/29 10:12:27;;;;;;;28.70;13.57;;;19.80;99.90;;;;;;5024592;28;20037;-74
2023/06/29 10:14:55;;;;;;;33.10;14.32;;;19.80;99.90;;;;;;5006843;28;20468;-75
2023/06/29 10:17:49;;;;;;;36.13;15.20;;;19.80;99.90;;;;;;5024220;28;20042;-75
2023/06/29 10:20:17;;;;;;;46.55;16.50;;;19.80;99.90;;;;;;5014064;28;20054;-75
2023/06/29 10:22:44;;;;;;;36.08;14.38;;;19.80;99.90;;;;;;5023267;28;20049;-75
2023/06/29 10:25:14;;;;;;;33.58;15.18;;;19.80;99.90;;;;;;5006331;28;20111;-75
2023/06/29 10:27:40;;;;;;;32.00;15.18;;;19.80;99.90;;;;;;4990129;28;20071;-75
2023/06/29 10:30:06;;;;;;;36.58;15.50;;;19.80;99.90;;;;;;5023428;28;20045;-75
2023/06/29 10:32:37;;;;;;;41.05;16.27;;;19.80;99.90;;;;;;5006385;28;20407;-75
2023/06/29 10:35:08;;;;;;;32.53;13.70;;;19.80;99.90;;;;;;5006478;28;20489;-75
2023/06/29 10:37:35;;;;;;;30.67;14.02;;;19.80;99.90;;;;;;5023025;28;20326;-75
2023/06/29 10:40:05;;;;;;;35.95;15.35;;;19.80;99.90;;;;;;5006381;28;20380;-74
2023/06/29 10:42:36;;;;;;;34.70;15.05;;;19.80;99.90;;;;;;5006239;28;20080;-75
2023/06/29 10:45:02;;;;;;;35.45;16.73;;;19.80;99.90;;;;;;5019318;28;20065;-75
2023/06/29 10:47:37;;;;;;;32.35;15.07;;;19.80;99.90;;;;;;5023825;28;20883;-74
2023/06/29 10:50:08;;;;;;;35.42;14.48;;;19.90;99.90;;;;;;5020511;28;20165;-75
2023/06/29 10:52:35;;;;;;;34.55;16.00;;;19.90;99.90;;;;;;4997468;28;20503;-75
2023/06/29 10:55:22;;;;;;;32.42;14.30;;;20.00;99.90;;;;;;5009669;28;20141;-74
2023/06/29 10:57:51;;;;;;;29.58;14.82;;;20.00;99.90;;;;;;4998594;28;20125;-76
2023/06/29 11:00:17;;;;;;;25.77;13.02;;;20.10;99.90;;;;;;4998961;28;20124;-75
2023/06/29 11:02:44;;;;;;;29.75;13.05;;;20.20;99.90;;;;;;5024069;28;20045;-74
2023/06/29 11:05:16;;;;;;;30.02;14.93;;;20.20;99.90;;;;;;5004968;28;20502;-75
2023/06/29 11:07:52;;;;;;;28.85;12.48;;;20.20;99.90;;;;;;5003087;28;20046;-74
2023/06/29 11:10:22;;;;;;;25.98;13.45;;;20.30;99.90;;;;;;4999314;28;20046;-75
2023/06/29 11:12:54;;;;;;;26.90;12.07;;;20.30;99.90;;;;;;5023342;28;20111;-73
2023/06/29 11:15:20;;;;;;;;;;;20.40;99.90;;;;;;5012180;28;20724;-73
2023/06/29 11:17:47;;;;;;;27.50;13.23;;;20.40;99.90;;;;;;4996840;28;19921;-75
2023/06/29 11:20:15;;;;;;;29.45;13.07;;;20.40;99.90;;;;;;4995422;28;20029;-74
2023/06/29 11:22:42;;;;;;;28.58;12.95;;;20.40;99.90;;;;;;5002181;28;20465;-75
2023/06/29 11:25:12;;;;;;;30.65;13.93;;;20.40;99.90;;;;;;5006935;28;20396;-75
2023/06/29 11:27:38;;;;;;;26.05;13.52;;;20.50;99.90;;;;;;5004051;28;20124;-75
2023/06/29 11:30:09;;;;;;;24.65;13.43;;;20.50;99.90;;;;;;4990134;28;20038;-75
2023/06/29 11:32:35;;;;;;;29.15;14.10;;;20.70;99.90;;;;;;4982527;28;20042;-75
2023/06/29 11:35:03;;;;;;;23.20;12.55;;;20.80;99.90;;;;;;5020902;28;20119;-75
2023/06/29 11:37:30;;;;;;;22.98;12.60;;;20.90;99.90;;;;;;4997547;28;20199;-75
2023/06/29 11:39:56;;;;;;;26.00;12.07;;;21.00;99.90;;;;;;5005824;28;20091;-75
2023/06/29 11:42:24;;;;;;;28.48;13.80;;;21.10;99.90;;;;;;5023574;28;20049;-75
2023/06/29 11:45:02;;;;;;;30.80;14.93;;;21.10;99.90;;;;;;4993178;28;20113;-74
2023/06/29 11:47:27;;;;;;;27.13;13.68;;;21.10;99.90;;;;;;4989281;28;20095;-75
2023/06/29 11:49:55;;;;;;;26.33;13.90;;;21.20;99.90;;;;;;5023114;28;20661;-74
2023/06/29 11:52:21;;;;;;;30.30;14.18;;;21.20;99.90;;;;;;5022314;28;20250;-75
2023/06/29 11:54:47;;;;;;;29.25;14.63;;;21.20;99.90;;;;;;5023088;28;20047;-74
2023/06/29 11:57:17;;;;;;;37.47;16.55;;;21.20;99.90;;;;;;5005158;28;20053;-75
2023/06/29 11:59:44;;;;;;;35.95;16.08;;;21.20;99.90;;;;;;5023305;28;20087;-75
2023/06/29 12:02:10;;;;;;;33.40;16.50;;;21.30;99.90;;;;;;5004677;28;20049;-75
2023/06/29 12:04:36;;;;;;;33.30;16.55;;;21.30;99.90;;;;;;5005855;28;20052;-74
2023/06/29 12:07:02;;;;;;;33.65;15.88;;;21.30;99.90;;;;;;5003481;28;20069;-75
2023/06/29 12:09:32;;;;;;;33.20;15.80;;;21.40;99.90;;;;;;5005082;28;20088;-74
2023/06/29 12:11:59;;;;;;;32.95;14.43;;;21.40;99.90;;;;;;5013992;28;20065;-75
2023/06/29 12:14:29;;;;;;;29.60;15.25;;;21.50;99.90;;;;;;5020509;28;20041;-75
2023/06/29 12:16:57;;;;;;;30.85;13.52;;;21.60;99.90;;;;;;5002125;28;20552;-75
2023/06/29 12:19:27;;;;;;;27.55;13.65;;;21.70;99.90;;;;;;4969123;28;20092;-75
2023/06/29 12:21:53;;;;;;;28.23;13.65;;;21.70;99.90;;;;;;5007103;28;20588;-75
2023/06/29 12:24:19;;;;;;;25.02;13.77;;;21.70;99.90;;;;;;5014675;28;20251;-75
2023/06/29 12:26:44;;;;;;;27.02;13.35;;;21.70;99.90;;;;;;5004924;28;20041;-75
2023/06/29 12:29:10;;;;;;;29.70;12.55;;;21.70;99.90;;;;;;5023198;28;20073;-75